Time;durP1;ratioP1;P1;durP2;ratioP2;P2;SDS_P1;SDS_P2;PMS_P1;PMS_P2;Temp;Humidity;BMP_temperature;BMP_pressure;BME280_temperature;BME280_humidity;BME280_pressure;Samples;Min_cycle;Max_cycle;Signal;HPM_P1;HPM_P2
2022/08/22 00:01:57;;;;;;;7.38;2.65;;;21.80;99.90;;;;;;5067272;28;20401;-62
2022/08/22 00:05:19;;;;;;;6.20;2.50;;;21.80;99.90;;;;;;5067164;28;20374;-63
2022/08/22 00:08:22;;;;;;;4.15;2.03;;;21.80;99.90;;;;;;4990552;28;20441;-63
2022/08/22 00:10:55;;;;;;;7.70;2.70;;;21.80;99.90;;;;;;4983602;28;20573;-63
2022/08/22 00:13:40;;;;;;;7.15;2.53;;;21.80;99.90;;;;;;5037753;28;20882;-63
2022/08/22 00:16:19;;;;;;;6.97;2.63;;;21.70;99.90;;;;;;5046664;28;20649;-63
2022/08/22 00:18:54;;;;;;;6.78;2.58;;;21.60;99.90;;;;;;5046733;28;20376;-63
2022/08/22 00:21:38;;;;;;;7.38;2.70;;;21.50;99.90;;;;;;5064678;28;20447;-63
2022/08/22 00:24:07;;;;;;;7.57;2.63;;;21.50;99.90;;;;;;5048266;28;20469;-63
2022/08/22 00:27:08;;;;;;;7.35;2.35;;;21.60;99.90;;;;;;5064106;28;20470;-63
2022/08/22 00:29:43;;;;;;;10.30;3.17;;;21.50;99.90;;;;;;5048670;28;20482;-63
2022/08/22 00:32:19;;;;;;;9.88;2.58;;;21.50;99.90;;;;;;5049228;28;20695;-63
2022/08/22 00:35:00;;;;;;;6.47;2.60;;;21.50;99.90;;;;;;5051225;28;20416;-63
2022/08/22 00:37:39;;;;;;;6.70;2.47;;;21.50;99.90;;;;;;5070204;28;20399;-63
2022/08/22 00:40:08;;;;;;;8.55;2.80;;;21.50;99.90;;;;;;5068742;28;20383;-63
2022/08/22 00:43:06;;;;;;;7.28;2.88;;;21.50;99.90;;;;;;5051431;28;20383;-63
2022/08/22 00:45:35;;;;;;;6.50;2.67;;;21.50;99.90;;;;;;5051209;28;20552;-63
2022/08/22 00:48:30;;;;;;;7.05;2.53;;;21.50;99.90;;;;;;5050864;28;20459;-63
2022/08/22 00:51:18;;;;;;;4.80;2.30;;;21.50;99.90;;;;;;5068664;28;20414;-62
2022/08/22 00:54:06;;;;;;;8.63;2.60;;;21.50;99.90;;;;;;5068199;28;20764;-63
2022/08/22 00:56:59;;;;;;;7.43;2.67;;;21.50;99.90;;;;;;5054105;28;20798;-63
2022/08/22 01:00:12;;;;;;;6.65;2.63;;;21.40;99.90;;;;;;5052875;28;20395;-63
2022/08/22 01:03:06;;;;;;;8.43;2.77;;;21.40;99.90;;;;;;5067837;28;20390;-63
2022/08/22 01:05:51;;;;;;;6.70;2.72;;;21.30;99.90;;;;;;5049266;28;20686;-63
2022/08/22 01:08:29;;;;;;;6.35;2.72;;;21.30;99.90;;;;;;5068294;28;20410;-63
2022/08/22 01:11:20;;;;;;;6.28;2.25;;;21.30;99.90;;;;;;5090709;28;20718;-63
2022/08/22 01:14:28;;;;;;;7.10;2.67;;;21.30;99.90;;;;;;5072212;28;20393;-63
2022/08/22 01:17:28;;;;;;;7.88;2.50;;;21.40;99.90;;;;;;4988831;28;20657;-62
2022/08/22 01:20:31;;;;;;;6.80;2.47;;;21.40;99.90;;;;;;5070334;28;20464;-63
2022/08/22 01:22:59;;;;;;;7.63;2.60;;;21.40;99.90;;;;;;5087502;28;20681;-62
2022/08/22 01:25:55;;;;;;;5.43;2.17;;;21.40;99.90;;;;;;5068557;28;20720;-63
2022/08/22 01:28:37;;;;;;;7.55;2.70;;;21.30;99.90;;;;;;5054243;28;20396;-63
2022/08/22 01:31:36;;;;;;;7.50;2.58;;;21.30;99.90;;;;;;5089059;28;20449;-63
2022/08/22 01:34:23;;;;;;;5.82;2.42;;;21.20;99.90;;;;;;5072743;28;20386;-63
2022/08/22 01:37:08;;;;;;;8.90;2.65;;;21.20;99.90;;;;;;5071747;28;20409;-63
2022/08/22 01:39:46;;;;;;;5.18;2.38;;;21.20;99.90;;;;;;5089417;28;20382;-63
2022/08/22 01:42:41;;;;;;;7.70;2.50;;;21.20;99.90;;;;;;5088675;28;20828;-62
2022/08/22 01:45:28;;;;;;;7.77;2.50;;;21.20;99.90;;;;;;5043899;28;20468;-63
2022/08/22 01:48:18;;;;;;;7.30;2.60;;;21.10;99.90;;;;;;5072223;28;20798;-62
2022/08/22 01:50:55;;;;;;;5.18;2.33;;;21.10;99.90;;;;;;5072486;28;20621;-63
2022/08/22 01:53:21;;;;;;;7.53;2.40;;;21.10;99.90;;;;;;5073418;28;20412;-63
2022/08/22 01:56:08;;;;;;;6.28;2.50;;;21.20;99.90;;;;;;5073080;28;20382;-63
2022/08/22 01:58:42;;;;;;;6.80;2.47;;;21.20;99.90;;;;;;5074770;28;20420;-63
2022/08/22 02:01:16;;;;;;;5.88;2.53;;;21.10;99.90;;;;;;5074349;28;20594;-63
2022/08/22 02:04:13;;;;;;;6.80;2.58;;;21.10;99.90;;;;;;5073551;28;20416;-63
2022/08/22 02:06:48;;;;;;;5.53;2.47;;;21.00;99.90;;;;;;5073123;28;20434;-63
2022/08/22 02:09:33;;;;;;;6.13;2.47;;;21.00;99.90;;;;;;5072788;28;20389;-63
2022/08/22 02:12:34;;;;;;;6.80;2.30;;;21.00;99.90;;;;;;5072764;28;20488;-63
2022/08/22 02:15:21;;;;;;;6.43;2.33;;;21.00;99.90;;;;;;5074855;28;20388;-62
2022/08/22 02:18:04;;;;;;;6.10;2.38;;;20.90;99.90;;;;;;5076689;28;20713;-63
2022/08/22 02:20:39;;;;;;;7.22;2.70;;;21.00;99.90;;;;;;5077251;28;20785;-63
2022/08/22 02:23:22;;;;;;;4.90;2.25;;;21.00;99.90;;;;;;5095519;28;20398;-63
2022/08/22 02:26:00;;;;;;;7.43;2.80;;;20.90;99.90;;;;;;5076903;28;20378;-63
2022/08/22 02:29:03;;;;;;;6.13;2.60;;;20.90;99.90;;;;;;5076828;28;20382;-63
2022/08/22 02:31:43;;;;;;;5.72;2.50;;;20.90;99.90;;;;;;5091691;28;20386;-63
2022/08/22 02:34:30;;;;;;;7.43;2.47;;;20.90;99.90;;;;;;5075731;28;20447;-63
2022/08/22 02:37:11;;;;;;;7.05;2.38;;;20.80;99.90;;;;;;5092047;28;20638;-63
2022/08/22 02:39:41;;;;;;;5.53;2.47;;;20.80;99.90;;;;;;5075251;28;20393;-63
2022/08/22 02:42:27;;;;;;;5.63;2.50;;;20.80;99.90;;;;;;5075068;28;20401;-63
2022/08/22 02:45:12;;;;;;;9.25;2.50;;;20.80;99.90;;;;;;5093771;28;20405;-63
2022/08/22 02:47:51;;;;;;;5.45;2.42;;;20.70;99.90;;;;;;5075565;28;20435;-63
2022/08/22 02:50:52;;;;;;;7.03;2.17;;;20.80;99.90;;;;;;5075505;28;20401;-63
2022/08/22 02:53:26;;;;;;;9.63;2.80;;;20.70;99.90;;;;;;5074302;28;20461;-63
2022/08/22 02:55:54;;;;;;;7.88;2.35;;;20.70;99.90;;;;;;5092707;28;20382;-63
2022/08/22 02:58:46;;;;;;;6.97;2.43;;;20.70;99.90;;;;;;5072926;28;20396;-63
2022/08/22 03:01:28;;;;;;;5.50;2.30;;;20.70;99.90;;;;;;5056539;28;20424;-63
2022/08/22 03:04:16;;;;;;;7.50;2.40;;;20.70;99.90;;;;;;5074062;28;20876;-63
2022/08/22 03:06:45;;;;;;;6.63;2.55;;;20.70;99.90;;;;;;5075522;28;20789;-61
2022/08/22 03:09:13;;;;;;;7.97;2.38;;;20.70;99.90;;;;;;5073752;28;20497;-61
2022/08/22 03:11:45;;;;;;;9.10;2.60;;;20.70;99.90;;;;;;5074405;28;20443;-61
2022/08/22 03:14:35;;;;;;;7.35;2.88;;;20.60;99.90;;;;;;5075642;28;20557;-62
2022/08/22 03:17:15;;;;;;;5.80;2.60;;;20.60;99.90;;;;;;5094586;28;20481;-61
2022/08/22 03:19:51;;;;;;;7.88;2.70;;;20.60;99.90;;;;;;5074176;28;20386;-62
2022/08/22 03:22:30;;;;;;;7.82;2.78;;;20.50;99.90;;;;;;5073386;28;20416;-61
2022/08/22 03:25:17;;;;;;;7.63;2.50;;;20.60;99.90;;;;;;5089254;28;20675;-61
2022/08/22 03:27:52;;;;;;;8.73;2.63;;;20.60;99.90;;;;;;5073280;28;20512;-62
2022/08/22 03:30:28;;;;;;;7.10;2.60;;;20.60;99.90;;;;;;5072676;28;20969;-61
2022/08/22 03:33:11;;;;;;;5.53;2.50;;;20.60;99.90;;;;;;5072942;28;20417;-62
2022/08/22 03:35:46;;;;;;;7.70;2.63;;;20.60;99.90;;;;;;5070369;28;20635;-62
2022/08/22 03:38:36;;;;;;;7.15;2.50;;;20.50;99.90;;;;;;5068160;28;20738;-61
2022/08/22 03:41:35;;;;;;;5.85;2.38;;;20.50;99.90;;;;;;5067941;28;20705;-63
2022/08/22 03:44:24;;;;;;;7.82;2.88;;;20.60;99.90;;;;;;5067752;28;20443;-62
2022/08/22 03:47:09;;;;;;;6.65;2.40;;;20.50;99.90;;;;;;5068123;28;20394;-62
2022/08/22 03:49:55;;;;;;;6.80;2.60;;;20.50;99.90;;;;;;5069943;28;20453;-61
2022/08/22 03:53:07;;;;;;;8.20;2.70;;;20.50;99.90;;;;;;5069796;28;20382;-62
2022/08/22 03:56:07;;;;;;;5.32;2.50;;;20.50;99.90;;;;;;5069580;28;20374;-61
2022/08/22 03:58:38;;;;;;;6.10;2.47;;;20.50;99.90;;;;;;5072768;28;20460;-62
2022/08/22 04:01:28;;;;;;;7.68;2.80;;;20.40;99.90;;;;;;5071519;28;20589;-62
2022/08/22 04:04:09;;;;;;;5.25;2.30;;;20.40;99.90;;;;;;5089073;28;20374;-62
2022/08/22 04:07:03;;;;;;;5.07;2.45;;;20.40;99.90;;;;;;5090640;28;20410;-63
2022/08/22 04:09:42;;;;;;;6.88;2.85;;;20.50;99.90;;;;;;5072275;28;20374;-62
2022/08/22 04:12:23;;;;;;;7.00;2.30;;;20.50;99.90;;;;;;5071031;28;20635;-62
2022/08/22 04:15:13;;;;;;;6.90;2.63;;;20.50;99.90;;;;;;5069462;28;20894;-62
2022/08/22 04:17:47;;;;;;;8.35;2.60;;;20.40;99.90;;;;;;5067924;28;20607;-62
2022/08/22 04:20:19;;;;;;;5.38;2.40;;;20.40;99.90;;;;;;5066866;28;20382;-62
2022/08/22 04:23:06;;;;;;;7.97;2.90;;;20.40;99.90;;;;;;5083354;28;20378;-62
2022/08/22 04:25:40;;;;;;;8.90;2.80;;;20.40;99.90;;;;;;5066326;28;20774;-62
2022/08/22 04:28:19;;;;;;;9.15;2.80;;;20.40;99.90;;;;;;5065895;28;20371;-61
2022/08/22 04:31:07;;;;;;;8.48;2.50;;;20.30;99.90;;;;;;5062990;28;20390;-62
2022/08/22 04:33:43;;;;;;;5.88;2.53;;;20.30;99.90;;;;;;5085660;28;20790;-61
2022/08/22 04:36:21;;;;;;;8.20;3.17;;;20.30;99.90;;;;;;5085562;28;20421;-61
2022/08/22 04:38:53;;;;;;;6.55;2.30;;;20.30;99.90;;;;;;5067953;28;20913;-62
2022/08/22 04:41:55;;;;;;;5.80;2.40;;;20.30;99.90;;;;;;5067700;28;20580;-62
2022/08/22 04:44:52;;;;;;;8.85;2.63;;;20.30;99.90;;;;;;5055574;28;20405;-62
2022/08/22 04:47:38;;;;;;;5.93;2.60;;;20.30;99.90;;;;;;5067555;28;20406;-61
2022/08/22 04:50:16;;;;;;;6.60;2.53;;;20.20;99.90;;;;;;5063093;28;20382;-62
2022/08/22 04:52:48;;;;;;;7.65;2.78;;;20.20;99.90;;;;;;5064723;28;20394;-61
2022/08/22 04:55:58;;;;;;;6.55;2.70;;;20.20;99.90;;;;;;5064303;28;20659;-62
2022/08/22 04:58:42;;;;;;;8.50;3.00;;;20.30;99.90;;;;;;5051122;28;21061;-62
2022/08/22 05:01:15;;;;;;;6.90;2.50;;;20.30;99.90;;;;;;5063890;28;20915;-62
2022/08/22 05:03:50;;;;;;;7.07;2.60;;;20.30;99.90;;;;;;5063412;28;20658;-63
2022/08/22 05:06:18;;;;;;;5.80;2.67;;;20.30;99.90;;;;;;5082834;28;20632;-62
2022/08/22 05:08:47;;;;;;;5.60;2.13;;;20.30;99.90;;;;;;5082253;28;20412;-62
2022/08/22 05:11:17;;;;;;;6.38;2.67;;;20.30;99.90;;;;;;5084088;28;20378;-61
2022/08/22 05:13:46;;;;;;;5.50;2.60;;;20.30;99.90;;;;;;5084133;28;20468;-61
2022/08/22 05:16:20;;;;;;;6.00;2.25;;;20.30;99.90;;;;;;5065860;28;20396;-61
2022/08/22 05:19:00;;;;;;;7.22;2.78;;;20.30;99.90;;;;;;5069793;28;20699;-62
2022/08/22 05:21:31;;;;;;;7.40;2.83;;;20.30;99.90;;;;;;5069987;28;20405;-61
2022/08/22 05:24:26;;;;;;;7.40;2.47;;;20.30;99.90;;;;;;5069716;28;20720;-62
2022/08/22 05:26:54;;;;;;;8.15;2.70;;;20.30;99.90;;;;;;5063271;28;20459;-62
2022/08/22 05:29:24;;;;;;;6.93;2.88;;;20.30;99.90;;;;;;5067911;28;20500;-62
2022/08/22 05:32:03;;;;;;;7.80;2.88;;;20.30;99.90;;;;;;5085941;28;20388;-62
2022/08/22 05:34:38;;;;;;;6.82;2.70;;;20.30;99.90;;;;;;5067988;28;20476;-62
2022/08/22 05:37:18;;;;;;;7.78;3.05;;;20.40;99.90;;;;;;5067793;28;20381;-62
2022/08/22 05:39:54;;;;;;;6.88;3.30;;;20.30;99.90;;;;;;5083726;28;20416;-62
2022/08/22 05:42:30;;;;;;;8.48;3.38;;;20.30;99.90;;;;;;5065353;28;20393;-62
2022/08/22 05:44:56;;;;;;;7.78;3.30;;;20.30;99.90;;;;;;5062521;28;20482;-62
2022/08/22 05:47:31;;;;;;;7.15;3.30;;;20.30;99.90;;;;;;5061313;28;20415;-62
2022/08/22 05:50:07;;;;;;;6.30;2.70;;;20.30;99.90;;;;;;5058543;28;20386;-62
2022/08/22 05:52:57;;;;;;;9.13;2.97;;;20.30;99.90;;;;;;5057874;28;20543;-62
2022/08/22 05:55:47;;;;;;;8.30;2.90;;;20.30;99.90;;;;;;5059526;28;20378;-62
2022/08/22 05:58:37;;;;;;;6.38;2.97;;;20.40;99.90;;;;;;5050990;28;20677;-62
2022/08/22 06:01:24;;;;;;;5.65;2.58;;;20.40;99.90;;;;;;5077992;28;20456;-62
2022/08/22 06:04:13;;;;;;;7.53;3.10;;;20.30;99.90;;;;;;5060669;28;20681;-62
2022/08/22 06:06:50;;;;;;;8.60;3.25;;;20.30;99.90;;;;;;5078279;28;20986;-62
2022/08/22 06:09:53;;;;;;;7.97;3.27;;;20.30;99.90;;;;;;5078321;28;20680;-62
2022/08/22 06:12:31;;;;;;;9.73;2.90;;;20.40;99.90;;;;;;5057794;28;20389;-61
2022/08/22 06:15:14;;;;;;;7.50;2.80;;;20.40;99.90;;;;;;5074448;28;20408;-63
2022/08/22 06:17:59;;;;;;;7.75;3.08;;;20.40;99.90;;;;;;5056243;28;20788;-63
2022/08/22 06:20:36;;;;;;;6.85;2.80;;;20.50;99.90;;;;;;5056729;28;20432;-63
2022/08/22 06:23:04;;;;;;;7.30;2.50;;;20.50;99.90;;;;;;5075460;28;20758;-63
2022/08/22 06:25:36;;;;;;;8.10;2.67;;;20.50;99.90;;;;;;5057522;28;20389;-62
2022/08/22 06:28:15;;;;;;;4.55;2.42;;;20.50;99.90;;;;;;5059160;28;20374;-62
2022/08/22 06:30:44;;;;;;;6.03;2.63;;;20.50;99.90;;;;;;5058057;28;20453;-62
2022/08/22 06:33:20;;;;;;;7.70;3.15;;;20.50;99.90;;;;;;5055462;28;20777;-62
2022/08/22 06:39:19;;;;;;;5.88;2.42;;;20.50;99.90;;;;;;5070668;28;20377;-62
2022/08/22 06:41:45;;;;;;;6.00;2.40;;;20.50;99.90;;;;;;5030902;28;20398;-62
2022/08/22 06:44:15;;;;;;;7.67;2.50;;;20.50;99.90;;;;;;5066280;28;20437;-62
2022/08/22 06:46:44;;;;;;;5.40;2.60;;;20.50;99.90;;;;;;5048444;28;20386;-62
2022/08/22 06:49:11;;;;;;;5.68;2.63;;;20.50;99.90;;;;;;5064394;28;20370;-62
2022/08/22 06:51:38;;;;;;;5.47;2.57;;;20.50;99.90;;;;;;5049053;28;20892;-62
2022/08/22 06:54:10;;;;;;;8.57;3.37;;;20.50;99.90;;;;;;5048310;28;20378;-62
2022/08/22 06:56:40;;;;;;;5.55;2.47;;;20.50;99.90;;;;;;5050332;28;20867;-61
2022/08/22 06:59:15;;;;;;;7.20;2.75;;;20.60;99.90;;;;;;5053378;28;20781;-61
2022/08/22 07:01:52;;;;;;;8.00;2.53;;;20.70;99.90;;;;;;5054916;28;21037;-62
2022/08/22 07:04:25;;;;;;;6.25;2.40;;;20.70;99.90;;;;;;5055150;28;20384;-61
2022/08/22 07:06:52;;;;;;;6.53;2.67;;;20.70;99.90;;;;;;5055676;28;20604;-61
2022/08/22 07:09:21;;;;;;;7.85;3.20;;;20.70;99.90;;;;;;5074939;28;20406;-61
2022/08/22 07:11:48;;;;;;;6.60;2.60;;;20.70;99.90;;;;;;5056375;28;20458;-62
2022/08/22 07:14:16;;;;;;;9.00;2.85;;;20.80;99.90;;;;;;5057200;28;21004;-62
2022/08/22 07:16:52;;;;;;;5.50;2.70;;;20.70;99.90;;;;;;5053795;28;20443;-62
2022/08/22 07:19:40;;;;;;;6.15;2.70;;;20.90;99.90;;;;;;5051977;28;20388;-62
2022/08/22 07:22:13;;;;;;;4.70;2.13;;;21.00;99.90;;;;;;5065296;28;20463;-62
2022/08/22 07:24:46;;;;;;;5.10;2.30;;;21.10;99.90;;;;;;5064540;28;20375;-62
2022/08/22 07:27:25;;;;;;;6.10;2.63;;;21.10;99.90;;;;;;5066233;28;20857;-62
2022/08/22 07:30:10;;;;;;;4.13;1.88;;;21.20;99.90;;;;;;5052431;28;20390;-61
2022/08/22 07:33:00;;;;;;;6.88;2.70;;;21.20;99.90;;;;;;5057339;28;20658;-62
2022/08/22 07:35:42;;;;;;;6.00;2.35;;;21.30;99.90;;;;;;5059443;28;20676;-62
2022/08/22 07:38:31;;;;;;;5.53;2.17;;;21.30;99.90;;;;;;5057791;28;20532;-62
2022/08/22 07:41:08;;;;;;;5.72;2.25;;;21.40;99.90;;;;;;5076888;28;20924;-62
2022/08/22 07:43:43;;;;;;;4.60;2.05;;;21.40;99.90;;;;;;5055637;28;20500;-62
2022/08/22 07:46:23;;;;;;;6.22;2.45;;;21.40;99.90;;;;;;5080935;28;20382;-61
2022/08/22 07:48:55;;;;;;;5.87;2.77;;;21.40;99.90;;;;;;5062855;28;20378;-62
2022/08/22 07:51:41;;;;;;;4.63;2.22;;;21.50;99.90;;;;;;5063938;28;20393;-62
2022/08/22 07:54:11;;;;;;;9.20;2.58;;;21.50;99.90;;;;;;5063326;28;20756;-62
2022/08/22 07:56:44;;;;;;;4.20;2.10;;;21.60;99.90;;;;;;5063055;28;20390;-61
2022/08/22 07:59:17;;;;;;;5.57;2.20;;;21.50;99.90;;;;;;5082907;28;20397;-62
2022/08/22 08:01:47;;;;;;;4.47;1.98;;;21.60;99.90;;;;;;5066290;28;20413;-60
2022/08/22 08:04:17;;;;;;;6.95;2.45;;;21.60;99.90;;;;;;5065818;28;20370;-62
2022/08/22 08:06:53;;;;;;;4.28;2.15;;;21.70;99.90;;;;;;5064675;28;20397;-62
2022/08/22 08:09:20;;;;;;;3.17;1.90;;;21.70;99.90;;;;;;5081856;28;20469;-61
2022/08/22 08:11:49;;;;;;;4.35;1.98;;;21.80;99.90;;;;;;5065015;28;20378;-62
2022/08/22 08:14:15;;;;;;;3.60;1.80;;;21.90;99.90;;;;;;5066771;28;20840;-62
2022/08/22 08:16:56;;;;;;;6.23;2.23;;;21.90;99.90;;;;;;5064335;28;20498;-62
2022/08/22 08:19:23;;;;;;;4.63;1.90;;;22.00;99.90;;;;;;5065184;28;20405;-63
2022/08/22 08:21:53;;;;;;;5.28;2.15;;;22.00;99.90;;;;;;5062345;28;20510;-63
2022/08/22 08:24:23;;;;;;;6.93;2.65;;;22.10;99.90;;;;;;5079182;28;20374;-63
2022/08/22 08:29:42;;;;;;;6.75;2.33;;;22.10;99.90;;;;;;5080999;28;20393;-63
2022/08/22 08:32:10;;;;;;;6.85;2.60;;;22.10;99.90;;;;;;5062535;28;20469;-63
2022/08/22 08:34:38;;;;;;;5.25;2.45;;;22.10;99.90;;;;;;5080731;28;20392;-63
2022/08/22 08:37:16;;;;;;;7.05;2.35;;;22.10;99.90;;;;;;5082787;28;20385;-63
2022/08/22 08:39:54;;;;;;;10.88;2.63;;;22.20;99.90;;;;;;5064256;28;20400;-63
2022/08/22 08:42:32;;;;;;;4.85;2.20;;;22.20;99.90;;;;;;5061857;28;20404;-63
2022/08/22 08:45:18;;;;;;;6.65;2.42;;;22.30;99.90;;;;;;5078586;28;20570;-63
2022/08/22 08:48:09;;;;;;;7.20;2.40;;;22.30;99.90;;;;;;5060545;28;20390;-63
2022/08/22 08:50:59;;;;;;;4.70;2.08;;;22.40;99.90;;;;;;5080512;28;20709;-62
2022/08/22 08:53:43;;;;;;;6.43;1.90;;;22.50;99.90;;;;;;5065583;28;20650;-63
2022/08/22 08:56:42;;;;;;;5.93;1.88;;;22.50;99.90;;;;;;5084295;28;20817;-63
2022/08/22 08:59:24;;;;;;;4.65;2.15;;;22.60;99.90;;;;;;5079157;28;20405;-63
2022/08/22 09:02:11;;;;;;;6.93;2.13;;;22.60;99.90;;;;;;5077893;28;20952;-63
2022/08/22 09:05:06;;;;;;;9.25;2.58;;;22.70;99.90;;;;;;5061917;28;20424;-63
2022/08/22 09:08:05;;;;;;;7.93;2.60;;;22.80;99.90;;;;;;5063128;28;20417;-63
2022/08/22 09:10:40;;;;;;;7.35;2.33;;;22.80;99.90;;;;;;5082491;28;20370;-64
2022/08/22 09:13:24;;;;;;;9.57;2.67;;;22.90;99.90;;;;;;5063153;28;20789;-64
2022/08/22 09:16:13;;;;;;;4.73;2.20;;;23.00;99.90;;;;;;5061929;28;20382;-64
2022/08/22 09:19:09;;;;;;;8.45;2.60;;;23.00;99.90;;;;;;5061342;28;20682;-63
2022/08/22 09:21:52;;;;;;;5.05;2.00;;;23.00;99.90;;;;;;5082324;28;20797;-63
2022/08/22 09:24:45;;;;;;;5.40;2.20;;;23.00;99.90;;;;;;5079659;28;20645;-63
2022/08/22 09:27:19;;;;;;;6.03;2.30;;;23.10;99.90;;;;;;5062053;28;20856;-63
2022/08/22 09:29:51;;;;;;;6.73;2.40;;;23.10;99.90;;;;;;5060846;28;20677;-63
2022/08/22 09:32:27;;;;;;;8.33;2.70;;;22.90;99.90;;;;;;5065184;28;21049;-63
2022/08/22 09:35:07;;;;;;;7.28;2.58;;;22.80;99.90;;;;;;5060920;28;20515;-63
2022/08/22 09:37:37;;;;;;;6.43;2.75;;;23.00;99.90;;;;;;5058866;28;20476;-63
2022/08/22 09:40:27;;;;;;;5.25;2.35;;;23.10;99.90;;;;;;5059032;28;20836;-63
2022/08/22 09:43:07;;;;;;;5.10;1.80;;;23.20;99.90;;;;;;5059329;28;20386;-63
2022/08/22 09:45:44;;;;;;;7.25;2.53;;;23.20;99.90;;;;;;5059931;28;20654;-63
2022/08/22 09:48:42;;;;;;;3.25;1.55;;;23.20;99.90;;;;;;5059034;28;20525;-64
2022/08/22 09:51:50;;;;;;;4.32;1.80;;;23.30;99.90;;;;;;5063683;28;20470;-63
2022/08/22 09:54:44;;;;;;;7.25;2.60;;;23.50;99.90;;;;;;5051926;28;20409;-63
2022/08/22 09:57:30;;;;;;;6.70;2.00;;;23.60;99.90;;;;;;5063173;28;20477;-59
2022/08/22 10:00:14;;;;;;;4.35;1.60;;;23.60;99.90;;;;;;5062869;28;20705;-58
2022/08/22 10:03:04;;;;;;;4.05;1.50;;;23.70;99.90;;;;;;5059144;28;20398;-58
2022/08/22 10:05:42;;;;;;;4.43;1.70;;;23.70;99.90;;;;;;5063905;28;20581;-59
2022/08/22 10:08:32;;;;;;;3.30;1.60;;;23.80;99.90;;;;;;5063437;28;20707;-59
2022/08/22 10:11:22;;;;;;;2.55;1.60;;;23.80;99.90;;;;;;5066983;28;20648;-59
2022/08/22 10:13:50;;;;;;;6.38;2.30;;;23.80;99.90;;;;;;5066597;28;20676;-58
2022/08/22 10:16:19;;;;;;;4.57;1.67;;;23.80;99.90;;;;;;5063344;28;20379;-59
2022/08/22 10:18:51;;;;;;;3.28;1.63;;;23.70;99.90;;;;;;5061861;28;20409;-58
2022/08/22 10:21:52;;;;;;;5.30;2.00;;;23.80;99.90;;;;;;5082432;28;20397;-57
2022/08/22 10:24:42;;;;;;;3.90;1.60;;;23.90;99.90;;;;;;5032950;28;20378;-59
2022/08/22 10:27:19;;;;;;;3.20;1.98;;;24.00;99.90;;;;;;5070085;28;20797;-58
2022/08/22 10:30:08;;;;;;;3.92;1.73;;;24.10;99.90;;;;;;5070922;28;20544;-57
2022/08/22 10:32:46;;;;;;;5.05;2.00;;;24.20;99.90;;;;;;5069838;28;20420;-59
2022/08/22 10:35:50;;;;;;;5.45;1.70;;;24.30;99.90;;;;;;5072442;28;20688;-59
2022/08/22 10:38:31;;;;;;;2.92;1.70;;;24.30;99.90;;;;;;5055786;28;20386;-55
2022/08/22 10:41:20;;;;;;;2.92;1.67;;;24.40;99.90;;;;;;5070463;28;20409;-59
2022/08/22 10:44:03;;;;;;;3.80;1.80;;;24.50;99.90;;;;;;5072959;28;20801;-59
2022/08/22 10:46:58;;;;;;;4.07;1.73;;;24.50;99.90;;;;;;5087439;28;20409;-64
2022/08/22 10:49:38;;;;;;;8.80;2.80;;;24.60;99.90;;;;;;5069261;28;20433;-63
2022/08/22 10:52:18;;;;;;;7.30;2.10;;;24.60;99.90;;;;;;5067811;28;20792;-63
2022/08/22 10:54:59;;;;;;;3.40;1.83;;;24.60;99.90;;;;;;5067792;28;20434;-64
2022/08/22 10:57:46;;;;;;;3.47;1.83;;;24.60;99.90;;;;;;5082390;28;20977;-64
2022/08/22 11:00:45;;;;;;;6.32;2.20;;;24.70;99.90;;;;;;5076293;28;20394;-63
2022/08/22 11:03:35;;;;;;;2.92;1.50;;;24.70;99.90;;;;;;5074532;28;20448;-63
2022/08/22 11:06:08;;;;;;;1.88;1.20;;;24.80;99.90;;;;;;5073774;28;20517;-63
2022/08/22 11:08:47;;;;;;;3.60;1.77;;;25.00;99.90;;;;;;5051081;28;20723;-63
2022/08/22 11:11:25;;;;;;;2.20;1.40;;;25.00;99.90;;;;;;5071382;28;20915;-63
2022/08/22 11:14:05;;;;;;;1.77;1.30;;;25.10;99.90;;;;;;5054608;28;20447;-63
2022/08/22 11:16:44;;;;;;;4.68;1.65;;;25.20;99.90;;;;;;5053008;28;20461;-63
2022/08/22 11:19:13;;;;;;;4.60;1.60;;;25.50;99.90;;;;;;5051538;28;20543;-63
2022/08/22 11:21:57;;;;;;;4.40;2.00;;;25.90;99.90;;;;;;5054125;28;20727;-63
2022/08/22 11:24:40;;;;;;;4.85;2.08;;;26.00;99.90;;;;;;5075069;28;20432;-62
2022/08/22 11:27:17;;;;;;;3.10;1.88;;;26.20;99.90;;;;;;5059530;28;20429;-63
2022/08/22 11:29:45;;;;;;;2.13;1.30;;;26.70;99.90;;;;;;5063180;28;20471;-62
2022/08/22 11:32:41;;;;;;;2.65;1.38;;;27.00;99.90;;;;;;5064423;28;20801;-62
2022/08/22 11:35:22;;;;;;;2.50;1.30;;;27.30;99.90;;;;;;5120539;27;20336;-63
2022/08/22 11:38:34;;;;;;;3.37;1.67;;;27.40;99.90;;;;;;5101048;28;20383;-63
2022/08/22 11:41:13;;;;;;;3.67;1.70;;;27.40;99.90;;;;;;5101089;28;20372;-63
2022/08/22 11:44:00;;;;;;;3.35;1.50;;;27.30;99.90;;;;;;5102550;28;20368;-63
2022/08/22 11:46:34;;;;;;;4.35;1.80;;;27.00;99.90;;;;;;5119817;28;20379;-63
2022/08/22 11:49:17;;;;;;;3.40;1.40;;;26.80;99.90;;;;;;5103559;28;20398;-63
2022/08/22 11:52:06;;;;;;;3.58;1.70;;;26.60;99.90;;;;;;5103032;28;20459;-64
2022/08/22 11:54:54;;;;;;;2.80;1.38;;;26.70;99.90;;;;;;5089215;28;20879;-63
2022/08/22 11:57:51;;;;;;;2.63;1.55;;;27.10;99.90;;;;;;5102592;28;20387;-63
2022/08/22 12:00:25;;;;;;;3.28;1.60;;;27.50;99.90;;;;;;5101350;28;20383;-64
2022/08/22 12:03:16;;;;;;;2.60;1.27;;;27.80;99.90;;;;;;5119175;28;20375;-62
2022/08/22 12:05:54;;;;;;;5.05;1.80;;;27.70;99.90;;;;;;5108168;28;20494;-64
2022/08/22 12:08:48;;;;;;;3.20;1.70;;;27.40;99.90;;;;;;5089095;28;20433;-63
2022/08/22 12:11:29;;;;;;;2.50;1.50;;;27.50;99.90;;;;;;5079601;28;20484;-64
2022/08/22 12:14:23;;;;;;;3.50;1.67;;;27.90;99.90;;;;;;5088701;28;20489;-63
2022/08/22 12:17:30;;;;;;;3.28;1.40;;;27.80;99.90;;;;;;5089793;28;20372;-63
2022/08/22 12:20:08;;;;;;;3.03;1.60;;;27.60;99.90;;;;;;5087274;28;20802;-63
2022/08/22 12:22:57;;;;;;;4.22;1.92;;;27.70;99.90;;;;;;5105683;28;20661;-63
2022/08/22 12:25:53;;;;;;;3.22;1.58;;;28.00;99.90;;;;;;5108518;28;20659;-63
2022/08/22 12:28:28;;;;;;;3.38;1.77;;;27.80;99.90;;;;;;5091710;28;20368;-63
2022/08/22 12:31:06;;;;;;;4.83;2.00;;;27.90;99.90;;;;;;5094213;28;20371;-63
2022/08/22 12:34:00;;;;;;;2.80;1.53;;;27.90;99.90;;;;;;5095382;28;20696;-62
2022/08/22 12:36:45;;;;;;;4.10;1.45;;;27.90;99.90;;;;;;5112775;28;20383;-63
2022/08/22 12:39:35;;;;;;;5.53;1.83;;;27.70;99.90;;;;;;5115094;28;20376;-63
2022/08/22 12:42:43;;;;;;;4.20;1.58;;;27.30;99.90;;;;;;5093541;28;20595;-62
2022/08/22 12:45:18;;;;;;;4.90;1.60;;;27.20;99.90;;;;;;5092168;28;20667;-62
2022/08/22 12:47:55;;;;;;;4.35;2.08;;;27.10;99.90;;;;;;5084056;28;20373;-63
2022/08/22 12:50:56;;;;;;;3.03;1.48;;;27.40;99.90;;;;;;5083005;28;20376;-63
2022/08/22 12:53:42;;;;;;;2.70;1.30;;;27.80;99.90;;;;;;5081252;28;20401;-62
2022/08/22 12:56:42;;;;;;;3.33;1.50;;;27.80;99.90;;;;;;5101302;28;20489;-63
2022/08/22 12:59:30;;;;;;;2.47;1.48;;;27.60;99.90;;;;;;5102016;28;20368;-62
2022/08/22 13:02:00;;;;;;;4.72;1.83;;;27.40;99.90;;;;;;5082558;28;20437;-63
2022/08/22 13:04:30;;;;;;;3.65;1.50;;;27.20;99.90;;;;;;5083400;28;20677;-63
2022/08/22 13:07:05;;;;;;;2.88;1.40;;;27.10;99.90;;;;;;5101822;28;20443;-63
2022/08/22 13:09:35;;;;;;;2.25;1.50;;;27.10;99.90;;;;;;5081507;28;20395;-63
2022/08/22 13:12:16;;;;;;;3.90;1.70;;;27.00;99.90;;;;;;5081314;28;20384;-63
2022/08/22 13:14:46;;;;;;;7.00;1.67;;;27.00;99.90;;;;;;5096433;28;20797;-63
2022/08/22 13:17:17;;;;;;;2.80;1.33;;;27.00;99.90;;;;;;5074960;28;20372;-62
2022/08/22 13:19:56;;;;;;;3.15;1.50;;;27.00;99.90;;;;;;5076284;28;20396;-62
2022/08/22 13:22:28;;;;;;;3.13;1.40;;;27.20;99.90;;;;;;5076766;28;20687;-62
2022/08/22 13:25:20;;;;;;;3.00;1.83;;;27.50;99.90;;;;;;5077411;28;20372;-63
2022/08/22 13:27:53;;;;;;;2.15;1.55;;;28.10;99.90;;;;;;5078214;28;20917;-63
2022/08/22 13:30:31;;;;;;;2.38;1.30;;;28.60;99.90;;;;;;5076622;28;20460;-63
2022/08/22 13:33:10;;;;;;;3.63;1.50;;;29.30;99.90;;;;;;5096954;28;20639;-63
2022/08/22 13:35:47;;;;;;;3.03;1.50;;;29.80;99.90;;;;;;5079905;28;20719;-63
2022/08/22 13:38:23;;;;;;;2.95;1.50;;;30.10;99.90;;;;;;5082420;28;20408;-63
2022/08/22 13:40:51;;;;;;;3.42;1.55;;;30.40;99.90;;;;;;5083952;28;20648;-63
2022/08/22 13:43:29;;;;;;;3.07;1.30;;;30.40;99.90;;;;;;5100741;28;20469;-63
2022/08/22 13:46:00;;;;;;;1.83;1.23;;;30.30;99.90;;;;;;5084336;28;20416;-63
2022/08/22 13:48:44;;;;;;;3.37;1.60;;;30.20;99.90;;;;;;5087812;28;21068;-63
2022/08/22 13:51:59;;;;;;;3.35;1.42;;;29.80;99.90;;;;;;5088330;28;20392;-63
2022/08/22 13:54:56;;;;;;;2.78;1.45;;;29.40;99.90;;;;;;5088756;28;20399;-63
2022/08/22 13:57:32;;;;;;;6.68;2.00;;;29.00;99.90;;;;;;5087362;28;20775;-63
2022/08/22 14:00:30;;;;;;;3.35;1.60;;;28.70;99.90;;;;;;5091091;28;20377;-63
2022/08/22 14:02:59;;;;;;;3.92;1.58;;;28.40;99.90;;;;;;5091457;28;20433;-63
2022/08/22 14:05:53;;;;;;;4.22;1.75;;;28.20;99.90;;;;;;5090481;28;20389;-63
2022/08/22 14:08:33;;;;;;;2.22;1.50;;;28.20;99.90;;;;;;5088640;28;20364;-63
2022/08/22 14:11:07;;;;;;;3.90;1.60;;;28.10;99.90;;;;;;5089512;28;20412;-63